Main page
METAR-TAF:

METAR-TAF

Airports :

Don Mueang International Airport

Bangkok, Thailand

latitude: 13-54-45N, longitude: 100-36-24E, elevation: 4 m

Current weather observation

The report was made 54 minutes ago, at 22:30 UTC
Wind 4 kt from the East/Southeast
Temperature 25°C
Humidity 94%
Pressure 1013 hPa
Visibility: 4000 m
Few clouds at a height of 3000 ft
mist

METAR: VTBD 212230Z 11004KT 4000 BR FEW030 25/24 Q1013 NOSIG

Time: 06:24 (23:24 UTC)

Forecast

The report was made 6 hours and 24 minutes ago, at 17:00 UTC
Forecast valid from 21 at 18 UTC to 22 at 24 UTC
Wind 5 kt from the North
Visibility: 9000 m
Few clouds at a height of 4000 ft
Becoming
from 21 at 22 UTC to 21 at 24 UTC
Wind 8 kt from the East
Visibility: 4000 m
mist
Becoming
from 22 at 02 UTC to 22 at 04 UTC
Visibility 10 km or more

TAF: VTBD 211700Z 2118/2224 35005KT 9000 FEW040 BECMG 2122/2124 09008KT 4000 BR BECMG 2202/2204 9999 NSW

Weather observations and forecasts of more than 4000 airports (METAR and TAF reports).

The available stations are represented by yellow and red dots on the map.

Hover mouse over dot to see the name of the station.

Then click to see weather observations and forecasts.

To change the map : click on the green buttons with a black cross to zoom in, on the green button with a dash to zoom out, or on the green arrows for adjacent maps.


METAR-TAF: